Elba, Idaho
Current Conditions -  °F | °C
As of 10:53 PM on Monday 20 Oct 2014 (Local Time) from KBYI Reporting Station
Few Clouds Few Clouds  
Wind Chill: 66°   Ceiling: Unl
Heat Index: 66°   Visibility: 10mi
Dew Point: 36°   Wind: 13mph
Humidity: 33%   Direction: 190°S
Pressure: 29.78"   Gusts: NA
Location:  42.25°N, 113.56°W
Report Text: KBYI 210453Z AUTO 19011KT 10SM FEW120 19/02 A2978 RMK AO2 SLP052 T01890022
Loading
Personal Weather Stations






























Interactive Weather Map New forecast layout! Learn more

10-Day Weather Forecast

Advertisements
Track Severe Weather on mobile